Nearby METAR Reports

 

KSJC - San Jose, California, USA
Distance from station: NE 14km
Updated: 20/01/2021 10:53
Clear
Clear
 Wind from SE
Wind: SE 7 km/h
Temperature: 5°C
Wind Chill: 3°C
Dew Point: -4°C
Humidity: 53%
Barometer: 1020 hPa
Clouds: Clear
Visibility: 16 km
2021/01/20 14:53 KSJC 201453Z 13004KT 10SM CLR 05/M04 A3012 RMK AO2 SLP197 T00501044 53012
KNUQ - Moffett Nas/Mtn, California, USA
Distance from station: N 14km
Updated: 20/01/2021 11:35
Clear
Clear
 Wind from calm
Wind: Calm
Temperature: 6°C
Dew Point: -4°C
Humidity: 49%
Barometer: 1020 hPa
Clouds: Clear
Visibility: 16 km
2021/01/20 15:35 KNUQ 201535Z AUTO 00000KT 10SM CLR 06/M04 A3012 RMK AO2
 
KPAO - Palo Alto, California, USA
Distance from station: NNW 23km
Updated: 20/01/2021 10:47
Clear
Clear
 Wind from varies
Wind: varies 6 km/h
Temperature: 4°C
Dew Point: -3°C
Humidity: 61%
Barometer: 1020 hPa
Clouds: Clear
Visibility: 16 km
2021/01/20 14:47 KPAO 201447Z VRB03KT 10SM SKC 04/M03 A3012
KRHV - San Jose/Reid, California, USA
Distance from station: ENE 19km
Updated: 20/01/2021 11:47
Clear
Clear
 Wind from calm
Wind: Calm
Temperature: 5°C
Dew Point: -3°C
Humidity: 57%
Barometer: 1020 hPa
Clouds: Clear
Visibility: 16 km
2021/01/20 15:47 KRHV 201547Z 00000KT 10SM SKC 05/M03 A3012
 
KOAK - Oakland, California, USA
Distance from station: NNW 50km
Updated: 20/01/2021 10:53
Clear
Clear
 Wind from calm
Wind: Calm
Temperature: 8°C
Dew Point: -4°C
Humidity: 43%
Barometer: 1020 hPa
Clouds: Clear
Visibility: 16 km
2021/01/20 14:53 KOAK 201453Z 00000KT 10SM CLR 08/M04 A3012 RMK AO2 SLP199 T00831044 51010
KSQL - San Carlos Airpo, California, USA
Distance from station: NW 34km
Updated: 20/01/2021 11:47
Clear
Clear
 Wind from varies
Wind: varies 6 km/h
Temperature: 10°C
Dew Point: -7°C
Humidity: 30%
Barometer: 1020.3 hPa
Clouds: Clear
Visibility: 16 km
2021/01/20 15:47 KSQL 201547Z VRB03KT 10SM SKC 10/M07 A3013
 
KSFO - San Francisco, California, USA
Distance from station: NW 49km
Updated: 20/01/2021 10:56
Clear
Clear
 Wind from S
Wind: S 9 km/h
Temperature: 9°C
Wind Chill: 7°C
Dew Point: 0°C
Humidity: 54%
Barometer: 1019.6 hPa
Clouds: Clear
Visibility: 16 km
2021/01/20 14:56 KSFO 201456Z 17005KT 10SM CLR 09/00 A3011 RMK AO2 SLP194 T00940000 51010
KE16 - San Martin, California, USA
Distance from station: ESE 43km
Updated: 20/01/2021 11:35
Clear
Clear
 Wind from NNW
Wind: NNW 11 km/h
Temperature: 3°C
Wind Chill: 0°C
Dew Point: -4°C
Humidity: 60%
Barometer: 1020.7 hPa
Clouds: Clear
Visibility: 16 km
2021/01/20 15:35 KE16 201535Z AUTO 33006KT 10SM CLR 03/M04 A3014 RMK AO2
 
KWVI - Watsonville, California, USA
Distance from station: SSE 44km
Updated: 20/01/2021 10:53
Clear
Clear
 Wind from W
Wind: W 6 km/h
Temperature: 5°C
Dew Point: -4°C
Humidity: 53%
Barometer: 1019 hPa
Clouds: Clear
Visibility: 16 km
2021/01/20 14:53 KWVI 201453Z AUTO 28003KT 10SM CLR 05/M04 A3009 RMK AO2 SLP189 T00501039 53008
KHAF - Half Moon Bay, California, USA
Distance from station: WNW 50km
Updated: 20/01/2021 11:35

 
2021/01/20 15:35 KHAF 201535Z AUTO RMK AO2 PWINO
 
KHWD - Hayward, California, USA
Distance from station: N 44km
Updated: 20/01/2021 10:54
Clear
Clear
 Wind from NE
Wind: NE 7 km/h
Temperature: 8°C
Wind Chill: 7°C
Dew Point: -6°C
Humidity: 37%
Barometer: 1019.3 hPa
Clouds: Clear
Visibility: 16 km
2021/01/20 14:54 KHWD 201454Z 05004KT 10SM CLR 08/M06 A3010 RMK AO2 SLP204 T00831061 51009
KLVK - Livermore, California, USA
Distance from station: NNE 51km
Updated: 20/01/2021 10:53
Clear
Clear
 Wind from calm
Wind: Calm
Temperature: 4°C
Dew Point: -6°C
Humidity: 48%
Barometer: 1020 hPa
Clouds: Clear
Visibility: 16 km
2021/01/20 14:53 KLVK 201453Z AUTO 00000KT 10SM CLR 04/M06 A3012 RMK AO2 SLP198 T00441061 53011